Time;durP1;ratioP1;P1;durP2;ratioP2;P2;SDS_P1;SDS_P2;PMS_P1;PMS_P2;Temp;Humidity;BMP_temperature;BMP_pressure;BME280_temperature;BME280_humidity;BME280_pressure;Samples;Min_cycle;Max_cycle;Signal;HPM_P1;HPM_P2
2022/12/05 00:02:09;;;;;;;35.53;19.17;;;4.60;99.90;;;;;;4818666;28;21063;-73
2022/12/05 00:04:35;;;;;;;36.97;18.27;;;4.60;99.90;;;;;;4805185;28;20521;-74
2022/12/05 00:07:01;;;;;;;36.58;19.35;;;4.60;99.90;;;;;;4823414;28;20633;-74
2022/12/05 00:09:26;;;;;;;35.28;18.65;;;4.60;99.90;;;;;;4807632;28;20827;-74
2022/12/05 00:11:52;;;;;;;33.67;17.98;;;5.30;99.90;;;;;;4815002;28;20543;-72
2022/12/05 00:14:18;;;;;;;34.58;18.25;;;4.60;99.90;;;;;;4808996;28;20499;-74
2022/12/05 00:16:44;;;;;;;32.45;17.15;;;5.10;99.90;;;;;;4821977;28;20823;-73
2022/12/05 00:19:13;;;;;;;34.03;17.88;;;5.20;99.90;;;;;;4810631;28;20493;-73
2022/12/05 00:21:40;;;;;;;33.47;18.48;;;4.60;99.90;;;;;;4834285;28;20294;-73
2022/12/05 00:24:08;;;;;;;32.40;17.45;;;4.60;99.90;;;;;;4822887;28;20478;-73
2022/12/05 00:26:34;;;;;;;32.55;16.65;;;4.60;99.90;;;;;;4810438;28;20452;-75
2022/12/05 00:29:01;;;;;;;33.45;18.30;;;5.10;99.90;;;;;;4815483;28;20700;-74
2022/12/05 00:31:27;;;;;;;33.25;18.20;;;4.60;99.90;;;;;;4838518;28;20918;-73
2022/12/05 00:33:54;;;;;;;36.35;18.27;;;4.60;99.90;;;;;;4824706;28;20504;-74
2022/12/05 00:36:23;;;;;;;36.30;18.67;;;4.70;99.90;;;;;;4822893;28;20374;-70
2022/12/05 00:38:50;;;;;;;35.60;18.73;;;4.70;99.90;;;;;;4818453;28;20051;-69
2022/12/05 00:41:18;;;;;;;35.80;18.48;;;4.70;99.90;;;;;;4818691;28;20862;-70
2022/12/05 00:43:45;;;;;;;36.25;19.30;;;5.00;99.90;;;;;;4829632;28;20209;-70
2022/12/05 00:46:17;;;;;;;33.13;17.80;;;5.20;99.90;;;;;;4835350;28;20393;-69
2022/12/05 00:48:43;;;;;;;36.72;19.75;;;4.80;99.90;;;;;;4807878;28;20401;-70
2022/12/05 00:51:20;;;;;;;34.13;19.02;;;4.80;99.90;;;;;;4818579;28;20368;-70
2022/12/05 00:53:47;;;;;;;34.42;18.10;;;4.80;99.90;;;;;;4802133;28;20359;-67
2022/12/05 00:56:16;;;;;;;36.75;19.75;;;4.80;99.90;;;;;;4810143;28;20516;-70
2022/12/05 00:58:43;;;;;;;42.63;20.27;;;5.10;99.90;;;;;;4822727;28;20063;-70
2022/12/05 01:01:12;;;;;;;39.72;19.38;;;5.20;99.90;;;;;;4834395;28;20278;-69
2022/12/05 01:03:38;;;;;;;36.70;19.60;;;5.00;99.90;;;;;;4853673;28;20431;-69
2022/12/05 01:06:07;;;;;;;38.08;20.08;;;5.00;99.90;;;;;;4809006;28;20358;-69
2022/12/05 01:08:34;;;;;;;36.33;19.50;;;4.80;99.90;;;;;;4819727;28;20664;-70
2022/12/05 01:11:00;;;;;;;38.45;20.25;;;4.80;99.90;;;;;;4821046;28;20804;-70
2022/12/05 01:13:27;;;;;;;37.67;19.92;;;4.90;99.90;;;;;;4811389;28;20503;-69
2022/12/05 01:15:53;;;;;;;39.00;20.50;;;5.10;99.90;;;;;;4822172;28;20386;-69
2022/12/05 01:18:20;;;;;;;39.47;20.15;;;4.80;99.90;;;;;;4803517;28;20581;-70
2022/12/05 01:20:47;;;;;;;36.13;19.95;;;4.70;99.90;;;;;;4824431;28;20541;-69
2022/12/05 01:23:13;;;;;;;41.28;20.35;;;4.80;99.90;;;;;;4814903;28;20741;-70
2022/12/05 01:25:40;;;;;;;40.65;19.95;;;5.00;99.90;;;;;;4802225;28;20601;-70
2022/12/05 01:28:07;;;;;;;39.13;19.33;;;5.30;99.90;;;;;;4817151;28;20347;-70
2022/12/05 01:30:40;;;;;;;40.67;19.27;;;5.10;99.90;;;;;;4801709;28;20383;-70
2022/12/05 01:33:05;;;;;;;35.10;18.00;;;4.70;99.90;;;;;;4823838;28;20496;-69
2022/12/05 01:35:35;;;;;;;34.15;17.55;;;4.80;99.90;;;;;;4822008;28;20360;-69
2022/12/05 01:38:02;;;;;;;31.92;17.67;;;4.90;99.90;;;;;;4834624;28;20451;-69
2022/12/05 01:40:30;;;;;;;31.70;16.33;;;4.90;99.90;;;;;;4821031;28;20548;-69
2022/12/05 01:42:56;;;;;;;28.65;16.45;;;5.00;99.90;;;;;;4823462;28;20819;-70
2022/12/05 01:45:43;;;;;;;30.40;15.20;;;5.00;99.90;;;;;;4823277;28;20966;-69
2022/12/05 01:48:20;;;;;;;28.05;15.68;;;5.00;99.90;;;;;;4810664;28;20854;-69
2022/12/05 01:50:47;;;;;;;26.10;15.13;;;5.00;99.90;;;;;;4809642;28;20385;-70
2022/12/05 01:53:14;;;;;;;26.30;15.38;;;5.00;99.90;;;;;;4841993;28;20522;-70
2022/12/05 01:55:40;;;;;;;23.20;13.98;;;5.10;99.90;;;;;;4823327;28;20472;-70
2022/12/05 01:58:08;;;;;;;25.58;15.18;;;5.50;99.90;;;;;;4822168;28;21157;-70
2022/12/05 02:00:34;;;;;;;28.27;14.25;;;5.10;99.90;;;;;;4823499;28;20333;-70
2022/12/05 02:03:05;;;;;;;29.25;14.57;;;5.20;99.90;;;;;;4823094;28;20367;-69
2022/12/05 02:05:33;;;;;;;22.98;13.13;;;5.20;99.90;;;;;;4824837;28;20415;-69
2022/12/05 02:08:03;;;;;;;22.45;12.43;;;4.70;99.90;;;;;;4825316;28;20715;-71
2022/12/05 02:10:36;;;;;;;22.85;12.45;;;5.20;99.90;;;;;;4813546;28;20382;-69
2022/12/05 02:13:30;;;;;;;26.23;13.38;;;5.00;99.90;;;;;;4821450;28;20373;-69
2022/12/05 02:16:22;;;;;;;22.23;11.77;;;5.00;99.90;;;;;;4815994;28;20528;-69
2022/12/05 02:19:25;;;;;;;18.17;11.25;;;5.30;99.90;;;;;;4821334;28;20437;-70
2022/12/05 02:22:00;;;;;;;25.10;12.30;;;5.30;99.90;;;;;;4802546;28;20494;-70
2022/12/05 02:25:03;;;;;;;19.40;12.02;;;5.30;99.90;;;;;;4824184;28;21021;-70
2022/12/05 02:27:48;;;;;;;21.58;11.65;;;5.60;99.90;;;;;;4821068;28;20437;-71
2022/12/05 02:30:20;;;;;;;22.05;11.85;;;5.00;99.90;;;;;;4804751;28;20867;-70
2022/12/05 02:33:10;;;;;;;19.65;10.95;;;5.30;99.90;;;;;;4804773;28;20308;-70
2022/12/05 02:35:50;;;;;;;16.85;10.65;;;5.40;99.90;;;;;;4822113;28;20328;-69
2022/12/05 02:39:01;;;;;;;18.80;10.20;;;5.60;99.90;;;;;;4831309;28;20451;-68
2022/12/05 02:41:32;;;;;;;21.83;10.60;;;5.20;99.90;;;;;;4771528;28;20561;-70
2022/12/05 02:44:06;;;;;;;18.67;10.57;;;5.40;99.90;;;;;;4814795;28;20479;-70
2022/12/05 02:46:36;;;;;;;17.25;9.40;;;5.20;99.90;;;;;;4825207;28;20171;-75
2022/12/05 02:49:07;;;;;;;17.20;10.57;;;5.60;99.90;;;;;;4816208;28;20517;-75
2022/12/05 02:51:38;;;;;;;16.67;9.70;;;5.40;99.90;;;;;;4829927;28;20328;-74
2022/12/05 02:54:09;;;;;;;17.58;10.45;;;5.20;99.90;;;;;;4831196;28;20916;-74
2022/12/05 02:56:37;;;;;;;17.02;9.02;;;5.90;99.90;;;;;;4813189;28;20417;-75
2022/12/05 02:59:03;;;;;;;15.57;9.15;;;5.30;99.90;;;;;;4832404;28;20918;-73
2022/12/05 03:01:32;;;;;;;18.48;9.25;;;5.40;99.90;;;;;;4826276;28;20336;-75
2022/12/05 03:04:01;;;;;;;16.52;9.30;;;5.40;99.90;;;;;;4830919;28;20365;-74
2022/12/05 03:06:47;;;;;;;18.00;8.77;;;5.30;99.90;;;;;;4809396;28;20865;-74
2022/12/05 03:09:20;;;;;;;16.73;8.82;;;5.40;99.90;;;;;;4835740;28;20462;-75
2022/12/05 03:11:50;;;;;;;16.40;9.60;;;5.30;99.90;;;;;;4821367;28;20485;-74
2022/12/05 03:14:24;;;;;;;17.08;9.43;;;5.30;99.90;;;;;;4828379;28;20512;-76
2022/12/05 03:16:52;;;;;;;13.68;8.77;;;5.30;99.90;;;;;;4831764;28;20791;-75
2022/12/05 03:20:03;;;;;;;17.40;8.85;;;5.40;99.90;;;;;;4807802;28;20336;-75
2022/12/05 03:22:32;;;;;;;16.35;9.13;;;5.30;99.90;;;;;;4811104;28;20563;-69
2022/12/05 03:25:02;;;;;;;15.13;8.32;;;5.60;99.90;;;;;;4808837;28;20880;-69
2022/12/05 03:27:28;;;;;;;16.00;8.60;;;5.30;99.90;;;;;;4827292;28;20435;-69
2022/12/05 03:30:03;;;;;;;18.38;9.18;;;5.30;99.90;;;;;;4817621;28;20551;-70
2022/12/05 03:32:41;;;;;;;13.95;8.60;;;5.30;99.90;;;;;;4802719;28;21002;-70
2022/12/05 03:35:13;;;;;;;15.38;8.65;;;5.30;99.90;;;;;;4821912;28;20456;-69
2022/12/05 03:37:54;;;;;;;15.27;8.55;;;5.20;99.90;;;;;;4830643;28;20389;-69
2022/12/05 03:40:40;;;;;;;16.45;8.35;;;5.80;99.90;;;;;;4829403;28;20048;-70
2022/12/05 03:43:09;;;;;;;14.27;8.13;;;5.30;99.90;;;;;;4825546;28;20502;-70
2022/12/05 03:45:54;;;;;;;14.55;8.07;;;5.20;99.90;;;;;;4834708;28;20528;-70
2022/12/05 03:48:26;;;;;;;13.68;8.18;;;5.20;99.90;;;;;;4809437;28;20076;-69
2022/12/05 03:50:53;;;;;;;15.77;8.20;;;5.80;99.90;;;;;;4835839;28;20483;-69
2022/12/05 03:53:27;;;;;;;16.40;8.82;;;5.20;99.90;;;;;;4832798;28;20335;-69
2022/12/05 03:56:08;;;;;;;15.70;8.77;;;5.30;99.90;;;;;;4806238;28;20500;-70
2022/12/05 03:58:43;;;;;;;14.88;8.40;;;5.30;99.90;;;;;;4810217;28;20456;-70
2022/12/05 04:01:12;;;;;;;14.35;8.75;;;5.20;99.90;;;;;;4826750;28;20321;-68
2022/12/05 04:03:56;;;;;;;14.88;8.40;;;5.20;99.90;;;;;;4819562;28;20425;-70
2022/12/05 04:06:34;;;;;;;19.85;9.15;;;5.30;99.90;;;;;;4832077;28;20398;-70
2022/12/05 04:09:25;;;;;;;16.98;9.20;;;4.80;99.90;;;;;;4820353;28;20445;-70
2022/12/05 04:12:00;;;;;;;17.03;9.63;;;5.20;99.90;;;;;;4805585;28;20368;-70
2022/12/05 04:14:40;;;;;;;15.70;8.95;;;5.20;99.90;;;;;;4805142;28;20652;-70
2022/12/05 04:17:15;;;;;;;18.75;10.05;;;5.40;99.90;;;;;;4804558;28;20508;-69
2022/12/05 04:22:38;;;;;;;17.52;9.18;;;5.70;99.90;;;;;;4828419;28;20970;-69
2022/12/05 04:28:22;;;;;;;20.60;10.63;;;5.60;99.90;;;;;;4822137;28;20520;-69
2022/12/05 04:31:04;;;;;;;18.02;9.32;;;5.20;99.90;;;;;;4857581;28;20382;-70
2022/12/05 04:33:29;;;;;;;;;;;5.40;99.90;;;;;;4828209;28;20336;-70
2022/12/05 04:36:05;;;;;;;17.52;9.63;;;5.20;99.90;;;;;;4807644;28;20419;-69
2022/12/05 04:39:02;;;;;;;17.27;9.45;;;5.20;99.90;;;;;;4819306;28;20333;-68
2022/12/05 04:41:38;;;;;;;18.73;9.93;;;5.20;99.90;;;;;;4821903;28;20439;-69
2022/12/05 04:44:09;;;;;;;16.23;9.35;;;5.20;99.90;;;;;;4835659;28;20431;-69
2022/12/05 04:46:37;;;;;;;15.33;8.83;;;5.20;99.90;;;;;;4824037;28;20464;-69
2022/12/05 04:49:07;;;;;;;19.17;9.38;;;5.20;99.90;;;;;;4825026;28;20799;-69
2022/12/05 04:51:36;;;;;;;24.23;10.50;;;5.10;99.90;;;;;;4826132;28;20443;-70
2022/12/05 04:54:13;;;;;;;18.08;9.32;;;4.90;99.90;;;;;;4813571;28;20544;-71
2022/12/05 04:56:42;;;;;;;24.35;10.07;;;5.30;99.90;;;;;;4819906;28;20729;-69
2022/12/05 04:59:09;;;;;;;18.77;9.90;;;5.20;99.90;;;;;;4805158;28;20210;-69
2022/12/05 05:01:44;;;;;;;17.77;10.10;;;5.00;99.90;;;;;;4816123;28;20569;-71
2022/12/05 05:04:33;;;;;;;19.20;9.07;;;5.30;99.90;;;;;;4799251;28;20902;-69
2022/12/05 05:07:03;;;;;;;19.75;9.98;;;5.70;99.90;;;;;;4805517;28;20915;-69
2022/12/05 05:09:29;;;;;;;18.17;8.98;;;5.30;99.90;;;;;;4811569;28;20414;-69
2022/12/05 05:11:55;;;;;;;22.35;10.20;;;5.50;99.90;;;;;;4824956;28;20521;-70
2022/12/05 05:14:21;;;;;;;20.73;10.10;;;5.30;99.90;;;;;;4812238;28;20391;-68
2022/12/05 05:16:47;;;;;;;17.25;9.23;;;5.40;99.90;;;;;;4818809;28;20527;-68
2022/12/05 05:19:13;;;;;;;18.85;9.82;;;5.30;99.90;;;;;;4821414;28;20530;-70
2022/12/05 05:21:40;;;;;;;20.35;9.55;;;5.20;99.90;;;;;;4805488;28;20767;-69
2022/12/05 05:24:08;;;;;;;21.00;10.15;;;5.20;99.90;;;;;;4816809;28;20433;-69
2022/12/05 05:26:37;;;;;;;18.85;10.13;;;5.30;99.90;;;;;;4818644;28;20479;-68
2022/12/05 05:29:03;;;;;;;18.98;9.85;;;5.30;99.90;;;;;;4826487;28;22355;-69
2022/12/05 05:31:29;;;;;;;20.58;9.95;;;5.30;99.90;;;;;;4830453;28;20373;-71
2022/12/05 05:33:56;;;;;;;21.42;9.23;;;5.90;99.90;;;;;;4845050;28;20398;-69
2022/12/05 05:36:24;;;;;;;18.10;9.10;;;5.60;99.90;;;;;;4827320;28;20566;-68
2022/12/05 05:38:52;;;;;;;18.80;9.45;;;5.30;99.90;;;;;;4823518;28;20834;-71
2022/12/05 05:41:27;;;;;;;17.85;9.90;;;4.90;99.90;;;;;;4807688;28;20452;-69
2022/12/05 05:43:54;;;;;;;16.00;8.52;;;5.40;99.90;;;;;;4820301;28;20431;-69
2022/12/05 05:46:23;;;;;;;19.77;9.77;;;5.30;99.90;;;;;;4820431;28;20556;-69
2022/12/05 05:48:50;;;;;;;15.60;9.13;;;5.30;99.90;;;;;;4814217;28;20334;-69
2022/12/05 05:51:16;;;;;;;19.90;9.15;;;5.30;99.90;;;;;;4811956;28;20465;-71
2022/12/05 05:53:43;;;;;;;16.00;8.93;;;5.30;99.90;;;;;;4813143;28;20405;-69
2022/12/05 05:56:12;;;;;;;22.67;10.18;;;5.30;99.90;;;;;;4814444;28;20302;-70
2022/12/05 05:58:38;;;;;;;17.90;9.02;;;5.30;99.90;;;;;;4819247;28;20578;-69
2022/12/05 06:01:19;;;;;;;20.42;9.38;;;5.90;99.90;;;;;;4834189;28;20835;-69
2022/12/05 06:03:45;;;;;;;17.27;9.33;;;5.30;99.90;;;;;;4853125;28;20332;-71
2022/12/05 06:06:13;;;;;;;19.25;9.90;;;5.30;99.90;;;;;;4833442;28;20483;-70
2022/12/05 06:08:42;;;;;;;22.17;9.80;;;5.30;99.90;;;;;;4823811;28;20926;-70
2022/12/05 06:11:10;;;;;;;15.25;8.70;;;5.70;99.90;;;;;;4817928;28;20533;-70
2022/12/05 06:13:36;;;;;;;19.20;9.23;;;4.80;99.90;;;;;;4814027;28;20572;-70
2022/12/05 06:16:05;;;;;;;18.50;9.00;;;5.30;99.90;;;;;;4844630;28;20970;-70
2022/12/05 06:18:30;;;;;;;18.80;9.27;;;5.30;99.90;;;;;;4815591;28;20635;-70
2022/12/05 06:20:57;;;;;;;18.65;9.23;;;5.30;99.90;;;;;;4815002;28;20362;-70
2022/12/05 06:23:24;;;;;;;15.07;8.73;;;5.30;99.90;;;;;;4855796;28;20361;-70
2022/12/05 06:25:52;;;;;;;19.55;9.52;;;5.20;99.90;;;;;;4819615;28;20389;-70
2022/12/05 06:28:18;;;;;;;21.27;9.10;;;5.80;99.90;;;;;;4839414;28;20943;-70
2022/12/05 06:30:45;;;;;;;17.77;8.82;;;5.30;99.90;;;;;;4825222;28;20348;-69
2022/12/05 06:33:11;;;;;;;19.05;9.02;;;5.40;99.90;;;;;;4827338;28;20337;-70
2022/12/05 06:35:37;;;;;;;17.67;8.90;;;5.30;99.90;;;;;;4802519;28;20382;-71
2022/12/05 06:38:04;;;;;;;18.50;8.45;;;5.30;99.90;;;;;;4830207;28;20684;-70
2022/12/05 06:40:30;;;;;;;18.17;8.68;;;5.30;99.90;;;;;;4821422;28;20459;-70
2022/12/05 06:42:56;;;;;;;21.25;9.15;;;5.30;99.90;;;;;;4822632;28;20244;-70
2022/12/05 06:45:22;;;;;;;18.08;8.82;;;5.30;99.90;;;;;;4843351;28;20434;-70
2022/12/05 06:47:47;;;;;;;21.33;8.32;;;5.50;99.90;;;;;;4806128;28;20241;-70
2022/12/05 06:50:13;;;;;;;18.50;8.35;;;6.00;99.90;;;;;;4823013;28;20921;-70
2022/12/05 06:52:39;;;;;;;21.02;8.60;;;5.30;99.90;;;;;;4819060;28;20585;-69
2022/12/05 06:55:05;;;;;;;20.48;8.77;;;5.40;99.90;;;;;;4821222;28;20493;-69
2022/12/05 06:57:31;;;;;;;20.20;8.93;;;5.30;99.90;;;;;;4810501;28;20438;-70
2022/12/05 07:02:41;;;;;;;20.88;8.35;;;5.30;99.90;;;;;;4819727;28;20400;-70
2022/12/05 07:05:10;;;;;;;24.05;9.18;;;5.30;99.90;;;;;;4821175;28;20511;-70
2022/12/05 07:07:36;;;;;;;21.10;9.00;;;5.50;99.90;;;;;;4817348;28;20409;-70
2022/12/05 07:10:04;;;;;;;19.73;9.48;;;5.30;99.90;;;;;;4805246;28;20658;-69
2022/12/05 07:12:33;;;;;;;23.08;9.73;;;5.50;99.90;;;;;;4815633;28;20993;-70
2022/12/05 07:15:03;;;;;;;25.55;10.63;;;5.30;99.90;;;;;;4814867;28;20417;-69
2022/12/05 07:17:34;;;;;;;18.30;9.32;;;5.30;99.90;;;;;;4812716;28;20553;-69
2022/12/05 07:20:00;;;;;;;21.83;9.68;;;5.40;99.90;;;;;;4816906;28;21078;-70
2022/12/05 07:22:25;;;;;;;21.98;9.68;;;5.60;99.90;;;;;;4805817;28;20367;-70
2022/12/05 07:24:52;;;;;;;18.60;9.82;;;5.40;99.90;;;;;;4803248;28;21095;-70
2022/12/05 07:27:18;;;;;;;17.05;8.82;;;5.20;99.90;;;;;;4823634;28;20448;-69
2022/12/05 07:29:43;;;;;;;20.70;9.93;;;5.40;99.90;;;;;;4821224;28;20927;-69
2022/12/05 07:32:09;;;;;;;20.05;9.68;;;5.30;99.90;;;;;;4822354;28;20838;-70
2022/12/05 07:34:35;;;;;;;22.05;9.98;;;5.20;99.90;;;;;;4834212;28;20450;-69
2022/12/05 07:37:01;;;;;;;25.33;9.27;;;5.40;99.90;;;;;;4806569;28;20600;-70
2022/12/05 07:39:26;;;;;;;16.77;9.27;;;5.40;99.90;;;;;;4820627;28;20033;-70
2022/12/05 07:41:52;;;;;;;17.08;8.70;;;5.40;99.90;;;;;;4810401;28;20404;-70
2022/12/05 07:44:18;;;;;;;22.13;9.20;;;6.00;99.90;;;;;;4824967;28;20797;-70
2022/12/05 07:46:44;;;;;;;21.48;8.88;;;5.30;99.90;;;;;;4823342;28;20448;-70
2022/12/05 07:49:09;;;;;;;16.17;8.43;;;5.40;99.90;;;;;;4820072;28;20452;-70
2022/12/05 07:51:35;;;;;;;20.67;9.02;;;5.40;99.90;;;;;;4823283;28;20930;-70
2022/12/05 07:54:01;;;;;;;19.50;9.27;;;5.10;99.90;;;;;;4809730;28;20409;-70
2022/12/05 07:56:27;;;;;;;17.40;7.65;;;5.50;99.90;;;;;;4805494;28;20544;-71
2022/12/05 07:58:53;;;;;;;21.30;8.10;;;5.40;99.90;;;;;;4826690;28;20477;-70
2022/12/05 08:01:27;;;;;;;16.85;8.30;;;5.50;99.90;;;;;;4809365;28;20431;-70
2022/12/05 08:03:55;;;;;;;18.75;7.22;;;5.40;99.90;;;;;;4832080;28;20305;-70
2022/12/05 08:06:23;;;;;;;17.30;8.27;;;5.40;99.90;;;;;;4824447;28;20379;-69
2022/12/05 08:08:50;;;;;;;20.42;8.02;;;5.60;99.90;;;;;;4826122;28;20481;-70
2022/12/05 08:11:34;;;;;;;20.23;7.82;;;5.40;99.90;;;;;;4826594;28;20179;-69
2022/12/05 08:14:02;;;;;;;21.13;8.20;;;5.40;99.90;;;;;;4818429;28;20443;-70
2022/12/05 08:16:29;;;;;;;18.55;7.97;;;5.50;99.90;;;;;;4802870;28;20390;-69
2022/12/05 08:18:57;;;;;;;17.90;7.28;;;5.40;99.90;;;;;;4831104;28;20583;-69
2022/12/05 08:21:24;;;;;;;18.65;8.35;;;5.50;99.90;;;;;;4835641;28;20482;-70
2022/12/05 08:23:50;;;;;;;21.13;9.88;;;5.50;99.90;;;;;;4823073;28;20666;-70
2022/12/05 08:26:24;;;;;;;16.55;8.85;;;5.60;99.90;;;;;;4824609;28;20563;-70
2022/12/05 08:28:56;;;;;;;17.20;8.13;;;5.50;99.90;;;;;;4817127;28;20713;-71
2022/12/05 08:31:23;;;;;;;19.52;8.48;;;5.20;99.90;;;;;;4811552;28;20344;-70
2022/12/05 08:33:50;;;;;;;17.10;7.95;;;5.50;99.90;;;;;;4852259;28;20146;-69
2022/12/05 08:36:18;;;;;;;17.98;7.32;;;5.50;99.90;;;;;;4824882;28;20383;-69
2022/12/05 08:38:44;;;;;;;16.17;7.28;;;5.50;99.90;;;;;;4850029;28;20385;-71
2022/12/05 08:41:15;;;;;;;21.33;7.28;;;5.50;99.90;;;;;;4821257;28;20442;-70
2022/12/05 08:43:41;;;;;;;14.15;7.25;;;5.80;99.90;;;;;;4821164;28;20218;-69
2022/12/05 08:46:08;;;;;;;16.85;6.78;;;5.50;99.90;;;;;;4811815;28;21263;-68
2022/12/05 08:48:34;;;;;;;15.65;7.95;;;5.50;99.90;;;;;;4797826;28;20535;-69
2022/12/05 08:51:08;;;;;;;20.38;7.47;;;6.00;99.90;;;;;;4847550;28;20407;-70
2022/12/05 08:53:36;;;;;;;25.17;7.97;;;5.50;99.90;;;;;;4809071;28;21139;-69
2022/12/05 08:56:03;;;;;;;17.02;7.18;;;5.50;99.90;;;;;;4824887;28;20347;-70
2022/12/05 08:58:32;;;;;;;18.35;7.85;;;5.50;99.90;;;;;;4809922;28;20572;-69
2022/12/05 09:01:08;;;;;;;25.40;7.30;;;5.50;99.90;;;;;;4828580;28;20405;-69
2022/12/05 09:03:35;;;;;;;17.83;8.23;;;5.50;99.90;;;;;;4812603;28;20885;-70
2022/12/05 09:06:10;;;;;;;18.02;7.40;;;5.40;99.90;;;;;;4825976;28;20771;-71
2022/12/05 09:08:36;;;;;;;19.00;7.03;;;5.50;99.90;;;;;;4842653;28;21114;-69
2022/12/05 09:11:10;;;;;;;15.35;7.05;;;5.10;99.90;;;;;;4831797;28;20924;-70
2022/12/05 09:13:36;;;;;;;19.60;8.05;;;5.60;99.90;;;;;;4826858;28;20494;-69
2022/12/05 09:16:14;;;;;;;20.30;7.90;;;5.50;99.90;;;;;;4816135;28;20394;-70
2022/12/05 09:18:41;;;;;;;20.75;8.95;;;5.70;99.90;;;;;;4830746;28;20533;-70
2022/12/05 09:21:13;;;;;;;24.67;8.65;;;5.50;99.90;;;;;;4831992;28;20592;-69
2022/12/05 09:23:39;;;;;;;24.30;8.73;;;5.50;99.90;;;;;;4831599;28;20414;-71
2022/12/05 09:26:10;;;;;;;20.65;8.65;;;5.50;99.90;;;;;;4800891;28;20465;-70
2022/12/05 09:28:36;;;;;;;22.90;9.63;;;5.50;99.90;;;;;;4830633;28;20432;-70
2022/12/05 09:31:08;;;;;;;24.52;9.25;;;5.50;99.90;;;;;;4815757;28;20528;-71
2022/12/05 09:33:36;;;;;;;26.13;9.70;;;5.50;99.90;;;;;;4820300;28;20919;-70
2022/12/05 09:36:09;;;;;;;21.08;9.13;;;5.40;99.90;;;;;;4812283;28;20373;-70
2022/12/05 09:38:35;;;;;;;21.65;9.73;;;5.10;99.90;;;;;;4828325;28;20990;-71
2022/12/05 09:41:07;;;;;;;23.23;9.10;;;5.10;99.90;;;;;;4814668;28;20318;-69
2022/12/05 09:44:14;;;;;;;21.00;9.68;;;5.50;99.90;;;;;;4826124;28;20501;-69
2022/12/05 09:46:49;;;;;;;24.58;9.63;;;5.50;99.90;;;;;;4787402;28;20358;-71
2022/12/05 09:49:15;;;;;;;26.80;10.18;;;5.50;99.90;;;;;;4806165;28;20399;-70
2022/12/05 09:51:45;;;;;;;21.42;9.45;;;6.00;99.90;;;;;;4809969;28;20950;-70
2022/12/05 09:54:12;;;;;;;21.20;9.70;;;5.10;99.90;;;;;;4816477;28;20336;-69
2022/12/05 09:56:40;;;;;;;23.00;9.45;;;5.60;99.90;;;;;;4833015;28;20382;-70
2022/12/05 09:59:14;;;;;;;30.13;9.95;;;5.50;99.90;;;;;;4817223;28;20394;-70
2022/12/05 10:02:01;;;;;;;22.10;9.88;;;5.50;99.90;;;;;;4798872;28;21037;-70
2022/12/05 10:04:48;;;;;;;23.75;9.88;;;5.60;99.90;;;;;;4835197;28;20227;-71
2022/12/05 10:07:32;;;;;;;25.13;10.05;;;5.60;99.90;;;;;;4802613;28;20841;-70
2022/12/05 10:10:16;;;;;;;30.60;10.95;;;5.50;99.90;;;;;;4814545;28;20477;-69
2022/12/05 10:13:04;;;;;;;24.45;10.10;;;5.60;99.90;;;;;;4816663;28;20740;-73
2022/12/05 10:15:36;;;;;;;31.45;10.30;;;5.50;99.90;;;;;;4810169;28;20490;-74
2022/12/05 10:18:09;;;;;;;28.42;9.75;;;5.70;99.90;;;;;;4796445;28;20843;-75
2022/12/05 10:20:47;;;;;;;23.98;10.23;;;5.50;99.90;;;;;;4812526;28;20544;-74
2022/12/05 10:23:22;;;;;;;23.35;10.23;;;5.70;99.90;;;;;;4822580;28;20422;-74
2022/12/05 10:25:55;;;;;;;20.60;9.80;;;5.60;99.90;;;;;;4818672;28;20396;-75
2022/12/05 10:28:45;;;;;;;23.48;9.98;;;5.60;99.90;;;;;;4824123;28;20365;-73
2022/12/05 10:31:15;;;;;;;25.05;9.80;;;6.00;99.90;;;;;;4806915;28;20545;-73
2022/12/05 10:33:50;;;;;;;22.42;10.07;;;5.60;99.90;;;;;;4791877;28;20556;-75
2022/12/05 10:36:16;;;;;;;20.33;9.63;;;5.60;99.90;;;;;;4813592;28;20384;-76
2022/12/05 10:38:43;;;;;;;19.17;9.63;;;6.00;99.90;;;;;;4796423;28;20478;-73
2022/12/05 10:41:12;;;;;;;25.38;10.27;;;5.50;99.90;;;;;;4826182;28;20428;-75
2022/12/05 10:43:43;;;;;;;21.42;9.57;;;5.50;99.90;;;;;;4817922;28;20935;-74
2022/12/05 10:46:11;;;;;;;23.58;9.30;;;5.50;99.90;;;;;;4806954;28;20327;-70
2022/12/05 10:48:40;;;;;;;25.65;9.07;;;5.50;99.90;;;;;;4797770;28;20336;-70
2022/12/05 10:51:12;;;;;;;25.92;10.15;;;5.80;99.90;;;;;;4830253;28;20272;-70
2022/12/05 10:53:49;;;;;;;22.05;9.68;;;5.50;99.90;;;;;;4816409;28;20414;-69
2022/12/05 10:56:38;;;;;;;20.95;8.70;;;5.50;99.90;;;;;;4806041;28;20411;-71
2022/12/05 10:59:06;;;;;;;19.83;9.10;;;5.30;99.90;;;;;;4829021;28;20366;-72
2022/12/05 11:01:32;;;;;;;22.17;10.35;;;6.10;99.90;;;;;;4821204;28;20955;-74
2022/12/05 11:04:00;;;;;;;24.17;10.00;;;5.50;99.90;;;;;;4821191;28;20543;-74
2022/12/05 11:06:29;;;;;;;24.13;10.27;;;5.50;99.90;;;;;;4806584;28;20418;-73
2022/12/05 11:08:58;;;;;;;20.88;9.32;;;5.50;99.90;;;;;;4804586;28;20237;-74
2022/12/05 11:11:29;;;;;;;16.67;8.75;;;5.50;99.90;;;;;;4830826;28;20444;-75
2022/12/05 11:13:57;;;;;;;19.58;9.15;;;6.00;99.90;;;;;;4807411;28;20955;-75
2022/12/05 11:16:29;;;;;;;18.77;9.32;;;5.50;99.90;;;;;;4827525;28;20329;-73
2022/12/05 11:18:55;;;;;;;21.38;8.95;;;5.50;99.90;;;;;;4803557;28;20448;-74
2022/12/05 11:21:21;;;;;;;16.60;8.02;;;5.60;99.90;;;;;;4818855;28;20324;-74
2022/12/05 11:23:48;;;;;;;21.38;8.73;;;5.50;99.90;;;;;;4803309;28;20396;-72
2022/12/05 11:26:35;;;;;;;17.55;7.60;;;5.50;99.90;;;;;;4805413;28;20960;-75
2022/12/05 11:29:03;;;;;;;15.23;8.50;;;5.50;99.90;;;;;;4818583;28;20340;-74
2022/12/05 11:31:30;;;;;;;18.08;8.00;;;5.50;99.90;;;;;;4819212;28;20439;-72
2022/12/05 11:34:20;;;;;;;13.68;7.55;;;5.50;99.90;;;;;;4822062;28;20455;-74
2022/12/05 11:36:52;;;;;;;19.88;7.43;;;5.50;99.90;;;;;;4821286;28;20390;-74
2022/12/05 11:39:18;;;;;;;16.38;6.15;;;5.50;99.90;;;;;;4829427;28;20564;-74
2022/12/05 11:41:56;;;;;;;19.48;7.28;;;5.50;99.90;;;;;;4829280;28;20928;-73
2022/12/05 11:44:42;;;;;;;15.40;7.13;;;5.70;99.90;;;;;;4813380;28;20496;-74
2022/12/05 11:47:21;;;;;;;16.75;7.10;;;5.50;99.90;;;;;;4807101;28;20372;-74
2022/12/05 11:49:50;;;;;;;15.88;7.03;;;5.50;99.90;;;;;;4844069;28;20444;-74
2022/12/05 11:52:24;;;;;;;16.35;6.15;;;5.60;99.90;;;;;;4823253;28;20351;-74
2022/12/05 11:54:55;;;;;;;14.75;5.65;;;5.50;99.90;;;;;;4827187;28;20764;-75
2022/12/05 11:57:40;;;;;;;13.17;6.37;;;6.10;99.90;;;;;;4829006;28;20371;-74
2022/12/05 12:00:18;;;;;;;15.73;5.93;;;5.50;99.90;;;;;;4821658;28;20914;-73
2022/12/05 12:02:53;;;;;;;13.85;6.32;;;5.80;99.90;;;;;;4808686;28;20927;-74
2022/12/05 12:05:31;;;;;;;12.82;6.35;;;5.50;99.90;;;;;;4809534;28;20408;-73
2022/12/05 12:08:24;;;;;;;12.48;5.85;;;5.70;99.90;;;;;;4828270;28;20417;-75
2022/12/05 12:11:09;;;;;;;14.00;4.93;;;5.50;99.90;;;;;;4820924;28;20384;-75
2022/12/05 12:13:54;;;;;;;10.85;5.57;;;5.20;99.90;;;;;;4805143;28;20550;-75
2022/12/05 12:17:03;;;;;;;16.33;5.50;;;5.40;99.90;;;;;;4804626;28;20897;-74
2022/12/05 12:20:11;;;;;;;11.55;4.97;;;5.40;99.90;;;;;;4815064;28;20175;-74
2022/12/05 12:22:55;;;;;;;10.85;4.80;;;5.50;99.90;;;;;;4813921;28;20385;-74
2022/12/05 12:25:46;;;;;;;11.48;4.82;;;5.50;99.90;;;;;;4803770;28;20365;-74
2022/12/05 12:28:39;;;;;;;11.85;4.35;;;5.90;99.90;;;;;;4821556;28;20472;-74
2022/12/05 12:31:12;;;;;;;9.98;4.53;;;5.50;99.90;;;;;;4829145;28;20369;-74
2022/12/05 12:34:04;;;;;;;16.05;4.57;;;5.50;99.90;;;;;;4819838;28;20450;-74
2022/12/05 12:37:08;;;;;;;8.00;4.25;;;5.40;99.90;;;;;;4807457;28;20390;-73
2022/12/05 12:40:15;;;;;;;11.30;4.57;;;5.40;99.90;;;;;;4826953;28;20955;-73
2022/12/05 12:42:48;;;;;;;11.10;4.30;;;5.50;99.90;;;;;;4790582;28;20427;-74
2022/12/05 12:45:29;;;;;;;11.65;4.75;;;5.40;99.90;;;;;;4820074;28;20344;-74
2022/12/05 12:48:20;;;;;;;9.43;4.00;;;5.00;99.90;;;;;;4840693;28;20045;-74
2022/12/05 12:50:51;;;;;;;11.60;4.53;;;5.50;99.90;;;;;;4838556;28;20412;-74
2022/12/05 12:53:17;;;;;;;;;;;6.00;99.90;;;;;;4825547;28;20901;-75
2022/12/05 12:56:00;;;;;;;10.80;4.07;;;5.50;99.90;;;;;;4802481;28;20292;-73
2022/12/05 12:58:39;;;;;;;10.05;3.80;;;5.50;99.90;;;;;;4823470;28;20377;-74
2022/12/05 13:01:15;;;;;;;13.18;3.88;;;5.40;99.90;;;;;;4818049;28;20961;-74
2022/12/05 13:04:04;;;;;;;10.02;4.43;;;5.40;99.90;;;;;;4860664;28;20444;-75
2022/12/05 13:06:39;;;;;;;11.68;4.72;;;5.50;99.90;;;;;;4812838;28;20548;-75
2022/12/05 13:09:18;;;;;;;9.85;3.90;;;5.50;99.90;;;;;;4819043;28;20489;-70
2022/12/05 13:11:47;;;;;;;14.50;3.85;;;5.50;99.90;;;;;;4819237;28;20424;-70
2022/12/05 13:14:16;;;;;;;10.73;3.35;;;5.50;99.90;;;;;;4803261;28;20455;-69
2022/12/05 13:16:47;;;;;;;11.73;4.00;;;5.50;99.90;;;;;;4806208;28;20645;-69
2022/12/05 13:19:36;;;;;;;12.45;3.90;;;5.80;99.90;;;;;;4811956;28;20436;-70
2022/12/05 13:22:02;;;;;;;10.63;3.67;;;5.50;99.90;;;;;;4848922;28;21065;-69